sensor_id;sensor_type;location;lat;lon;timestamp;pressure;altitude;pressure_sealevel;temperature;humidity
38054;BME280;23859;50.672;7.164;2023-02-15T00:01:13;102122.75;;;3.66;100.00
38054;BME280;23859;50.672;7.164;2023-02-15T00:03:39;102130.75;;;3.63;100.00
38054;BME280;23859;50.672;7.164;2023-02-15T00:06:05;102127.69;;;3.51;100.00
38054;BME280;23859;50.672;7.164;2023-02-15T00:08:31;102115.66;;;3.45;100.00
38054;BME280;23859;50.672;7.164;2023-02-15T00:11:08;102121.75;;;3.46;100.00
38054;BME280;23859;50.672;7.164;2023-02-15T00:13:35;102120.28;;;3.39;100.00
38054;BME280;23859;50.672;7.164;2023-02-15T00:16:06;102119.66;;;3.31;100.00
38054;BME280;23859;50.672;7.164;2023-02-15T00:18:33;102118.47;;;3.39;100.00
38054;BME280;23859;50.672;7.164;2023-02-15T00:21:07;102113.66;;;3.28;100.00
38054;BME280;23859;50.672;7.164;2023-02-15T00:23:33;102103.34;;;3.23;100.00
38054;BME280;23859;50.672;7.164;2023-02-15T00:26:10;102108.25;;;3.32;100.00
38054;BME280;23859;50.672;7.164;2023-02-15T00:28:37;102098.94;;;3.24;100.00
38054;BME280;23859;50.672;7.164;2023-02-15T00:31:11;102113.16;;;3.17;100.00
38054;BME280;23859;50.672;7.164;2023-02-15T00:33:39;102101.41;;;3.28;100.00
38054;BME280;23859;50.672;7.164;2023-02-15T00:36:07;102095.53;;;3.20;100.00
38054;BME280;23859;50.672;7.164;2023-02-15T00:38:34;102094.63;;;3.21;100.00
38054;BME280;23859;50.672;7.164;2023-02-15T00:41:03;102097.38;;;3.18;100.00
38054;BME280;23859;50.672;7.164;2023-02-15T00:43:30;102099.91;;;3.21;100.00
38054;BME280;23859;50.672;7.164;2023-02-15T00:45:57;102100.09;;;3.15;100.00
38054;BME280;23859;50.672;7.164;2023-02-15T00:48:23;102100.22;;;3.12;100.00
38054;BME280;23859;50.672;7.164;2023-02-15T00:50:59;102097.03;;;3.03;100.00
38054;BME280;23859;50.672;7.164;2023-02-15T00:53:26;102102.56;;;2.95;100.00
38054;BME280;23859;50.672;7.164;2023-02-15T00:55:53;102106.09;;;2.94;100.00
38054;BME280;23859;50.672;7.164;2023-02-15T00:58:19;102102.34;;;3.01;100.00
38054;BME280;23859;50.672;7.164;2023-02-15T01:00:46;102095.72;;;2.91;100.00
38054;BME280;23859;50.672;7.164;2023-02-15T01:03:14;102094.06;;;2.87;100.00
38054;BME280;23859;50.672;7.164;2023-02-15T01:05:40;102090.22;;;2.97;100.00
38054;BME280;23859;50.672;7.164;2023-02-15T01:08:06;102091.50;;;2.86;100.00
38054;BME280;23859;50.672;7.164;2023-02-15T01:10:35;102094.28;;;2.81;100.00
38054;BME280;23859;50.672;7.164;2023-02-15T01:13:01;102097.59;;;2.86;100.00
38054;BME280;23859;50.672;7.164;2023-02-15T01:15:28;102097.72;;;2.83;100.00
38054;BME280;23859;50.672;7.164;2023-02-15T01:17:54;102094.59;;;2.72;100.00
38054;BME280;23859;50.672;7.164;2023-02-15T01:20:25;102092.78;;;2.74;100.00
38054;BME280;23859;50.672;7.164;2023-02-15T01:22:53;102095.50;;;2.71;100.00
38054;BME280;23859;50.672;7.164;2023-02-15T01:25:21;102093.06;;;2.65;100.00
38054;BME280;23859;50.672;7.164;2023-02-15T01:27:47;102092.88;;;2.71;100.00
38054;BME280;23859;50.672;7.164;2023-02-15T01:30:14;102080.66;;;2.70;100.00
38054;BME280;23859;50.672;7.164;2023-02-15T01:32:41;102086.91;;;2.66;100.00
38054;BME280;23859;50.672;7.164;2023-02-15T01:35:08;102078.16;;;2.67;100.00
38054;BME280;23859;50.672;7.164;2023-02-15T01:37:35;102080.88;;;2.64;100.00
38054;BME280;23859;50.672;7.164;2023-02-15T01:40:02;102081.59;;;2.68;100.00
38054;BME280;23859;50.672;7.164;2023-02-15T01:42:31;102079.44;;;2.55;100.00
38054;BME280;23859;50.672;7.164;2023-02-15T01:45:00;102073.50;;;2.50;100.00
38054;BME280;23859;50.672;7.164;2023-02-15T01:52:31;102074.81;;;2.63;100.00
38054;BME280;23859;50.672;7.164;2023-02-15T01:54:58;102072.28;;;2.60;100.00
38054;BME280;23859;50.672;7.164;2023-02-15T01:57:26;102070.66;;;2.56;100.00
38054;BME280;23859;50.672;7.164;2023-02-15T01:59:56;102075.16;;;2.52;100.00
38054;BME280;23859;50.672;7.164;2023-02-15T02:02:24;102069.97;;;2.51;100.00
38054;BME280;23859;50.672;7.164;2023-02-15T02:04:52;102063.94;;;2.49;100.00
38054;BME280;23859;50.672;7.164;2023-02-15T02:07:26;102067.53;;;2.45;100.00
38054;BME280;23859;50.672;7.164;2023-02-15T02:09:52;102060.63;;;2.42;100.00
38054;BME280;23859;50.672;7.164;2023-02-15T02:12:19;102066.78;;;2.41;100.00
38054;BME280;23859;50.672;7.164;2023-02-15T02:14:47;102057.28;;;2.37;100.00
38054;BME280;23859;50.672;7.164;2023-02-15T02:17:42;102065.81;;;2.44;100.00
38054;BME280;23859;50.672;7.164;2023-02-15T02:24:08;102059.84;;;2.40;100.00
38054;BME280;23859;50.672;7.164;2023-02-15T02:29:17;102040.91;;;2.31;100.00
38054;BME280;23859;50.672;7.164;2023-02-15T02:32:21;102040.22;;;2.26;100.00
38054;BME280;23859;50.672;7.164;2023-02-15T02:40:42;102042.53;;;2.35;100.00
38054;BME280;23859;50.672;7.164;2023-02-15T02:43:51;102037.22;;;2.36;100.00
38054;BME280;23859;50.672;7.164;2023-02-15T02:46:41;102032.94;;;2.34;100.00
38054;BME280;23859;50.672;7.164;2023-02-15T02:49:09;102043.44;;;2.34;100.00
38054;BME280;23859;50.672;7.164;2023-02-15T02:51:37;102036.38;;;2.36;100.00
38054;BME280;23859;50.672;7.164;2023-02-15T02:54:05;102032.28;;;2.27;100.00
38054;BME280;23859;50.672;7.164;2023-02-15T02:56:43;102036.56;;;2.30;100.00
38054;BME280;23859;50.672;7.164;2023-02-15T02:59:17;102032.16;;;2.32;100.00
38054;BME280;23859;50.672;7.164;2023-02-15T03:01:56;102019.81;;;2.34;100.00
38054;BME280;23859;50.672;7.164;2023-02-15T03:04:28;102026.19;;;2.27;100.00
38054;BME280;23859;50.672;7.164;2023-02-15T03:07:01;102026.03;;;2.31;100.00
38054;BME280;23859;50.672;7.164;2023-02-15T03:09:43;102020.84;;;2.30;100.00
38054;BME280;23859;50.672;7.164;2023-02-15T03:12:18;102014.69;;;2.31;100.00
38054;BME280;23859;50.672;7.164;2023-02-15T03:14:48;102025.25;;;2.29;100.00
38054;BME280;23859;50.672;7.164;2023-02-15T03:17:15;102013.81;;;2.30;100.00
38054;BME280;23859;50.672;7.164;2023-02-15T03:19:45;102008.94;;;2.20;100.00
38054;BME280;23859;50.672;7.164;2023-02-15T03:22:20;101997.31;;;2.28;100.00
38054;BME280;23859;50.672;7.164;2023-02-15T03:27:24;101994.03;;;2.22;100.00
38054;BME280;23859;50.672;7.164;2023-02-15T03:29:55;101984.44;;;2.21;100.00
38054;BME280;23859;50.672;7.164;2023-02-15T03:32:23;101990.47;;;2.24;100.00
38054;BME280;23859;50.672;7.164;2023-02-15T03:34:50;101977.75;;;2.12;100.00
38054;BME280;23859;50.672;7.164;2023-02-15T03:37:25;101982.94;;;2.14;100.00
38054;BME280;23859;50.672;7.164;2023-02-15T03:40:11;101983.69;;;2.17;100.00
38054;BME280;23859;50.672;7.164;2023-02-15T03:43:05;101984.53;;;2.18;100.00
38054;BME280;23859;50.672;7.164;2023-02-15T03:45:37;101986.13;;;2.23;100.00
38054;BME280;23859;50.672;7.164;2023-02-15T03:48:05;101982.63;;;2.23;100.00
38054;BME280;23859;50.672;7.164;2023-02-15T03:50:36;101988.75;;;2.23;100.00
38054;BME280;23859;50.672;7.164;2023-02-15T03:53:23;101993.28;;;2.17;100.00
38054;BME280;23859;50.672;7.164;2023-02-15T03:55:53;102000.44;;;2.12;100.00
38054;BME280;23859;50.672;7.164;2023-02-15T03:58:19;101987.34;;;2.12;100.00
38054;BME280;23859;50.672;7.164;2023-02-15T04:01:11;101982.34;;;2.04;100.00
38054;BME280;23859;50.672;7.164;2023-02-15T04:04:03;101991.03;;;2.06;100.00
38054;BME280;23859;50.672;7.164;2023-02-15T04:06:32;101989.97;;;2.12;100.00
38054;BME280;23859;50.672;7.164;2023-02-15T04:08:59;101986.56;;;2.10;100.00
38054;BME280;23859;50.672;7.164;2023-02-15T04:11:43;101980.56;;;2.06;100.00
38054;BME280;23859;50.672;7.164;2023-02-15T04:14:09;101990.09;;;2.09;100.00
38054;BME280;23859;50.672;7.164;2023-02-15T04:16:54;101979.69;;;2.06;100.00
38054;BME280;23859;50.672;7.164;2023-02-15T04:19:20;101982.22;;;2.09;100.00
38054;BME280;23859;50.672;7.164;2023-02-15T04:22:04;101974.41;;;2.07;100.00
38054;BME280;23859;50.672;7.164;2023-02-15T04:24:49;101976.16;;;2.07;100.00
38054;BME280;23859;50.672;7.164;2023-02-15T04:27:34;101976.88;;;2.12;100.00
38054;BME280;23859;50.672;7.164;2023-02-15T04:30:00;101975.38;;;2.05;100.00
38054;BME280;23859;50.672;7.164;2023-02-15T04:32:26;101977.44;;;2.21;100.00
38054;BME280;23859;50.672;7.164;2023-02-15T04:34:53;101978.25;;;2.23;100.00
38054;BME280;23859;50.672;7.164;2023-02-15T04:37:19;101889.63;;;1.57;100.00
38054;BME280;23859;50.672;7.164;2023-02-15T04:39:45;101984.53;;;2.18;100.00
38054;BME280;23859;50.672;7.164;2023-02-15T04:42:11;101982.28;;;2.07;100.00
38054;BME280;23859;50.672;7.164;2023-02-15T04:44:37;101976.88;;;2.12;100.00
38054;BME280;23859;50.672;7.164;2023-02-15T04:47:03;101968.47;;;2.02;100.00
38054;BME280;23859;50.672;7.164;2023-02-15T04:49:29;101976.72;;;2.16;100.00
38054;BME280;23859;50.672;7.164;2023-02-15T04:51:55;101967.44;;;2.06;100.00
38054;BME280;23859;50.672;7.164;2023-02-15T04:54:21;101971.94;;;2.03;100.00
38054;BME280;23859;50.672;7.164;2023-02-15T04:56:47;101969.44;;;2.00;100.00
38054;BME280;23859;50.672;7.164;2023-02-15T04:59:13;101970.03;;;2.08;100.00
38054;BME280;23859;50.672;7.164;2023-02-15T05:01:39;101977.13;;;2.04;100.00
38054;BME280;23859;50.672;7.164;2023-02-15T05:04:06;101974.56;;;2.03;100.00
38054;BME280;23859;50.672;7.164;2023-02-15T05:06:32;101979.13;;;1.97;100.00
38054;BME280;23859;50.672;7.164;2023-02-15T05:08:58;101978.84;;;2.05;100.00
38054;BME280;23859;50.672;7.164;2023-02-15T05:11:25;101974.31;;;2.10;100.00
38054;BME280;23859;50.672;7.164;2023-02-15T05:13:51;101972.84;;;2.02;100.00
38054;BME280;23859;50.672;7.164;2023-02-15T05:16:18;101976.03;;;2.11;100.00
38054;BME280;23859;50.672;7.164;2023-02-15T05:18:44;101967.41;;;2.08;100.00
38054;BME280;23859;50.672;7.164;2023-02-15T05:21:10;101959.34;;;2.14;100.00
38054;BME280;23859;50.672;7.164;2023-02-15T05:23:36;101963.47;;;2.21;100.00
38054;BME280;23859;50.672;7.164;2023-02-15T05:26:02;101968.91;;;2.15;100.00
38054;BME280;23859;50.672;7.164;2023-02-15T05:28:47;101968.81;;;2.18;100.00
38054;BME280;23859;50.672;7.164;2023-02-15T05:31:16;101957.47;;;2.17;100.00
38054;BME280;23859;50.672;7.164;2023-02-15T05:33:43;101956.91;;;2.08;100.00
38054;BME280;23859;50.672;7.164;2023-02-15T05:36:10;101951.47;;;2.14;100.00
38054;BME280;23859;50.672;7.164;2023-02-15T05:38:36;101958.84;;;2.03;100.00
38054;BME280;23859;50.672;7.164;2023-02-15T05:41:07;101955.25;;;2.05;100.00
38054;BME280;23859;50.672;7.164;2023-02-15T05:43:34;101957.03;;;2.05;100.00
38054;BME280;23859;50.672;7.164;2023-02-15T05:46:00;101959.66;;;2.05;100.00
38054;BME280;23859;50.672;7.164;2023-02-15T05:48:27;101962.91;;;2.11;100.00
38054;BME280;23859;50.672;7.164;2023-02-15T05:51:11;101957.47;;;2.17;100.00
38054;BME280;23859;50.672;7.164;2023-02-15T05:53:39;101966.88;;;2.24;100.00
38054;BME280;23859;50.672;7.164;2023-02-15T05:56:07;101962.66;;;2.19;100.00
38054;BME280;23859;50.672;7.164;2023-02-15T05:58:36;101967.31;;;2.11;100.00
38054;BME280;23859;50.672;7.164;2023-02-15T06:01:12;101966.44;;;2.10;100.00
38054;BME280;23859;50.672;7.164;2023-02-15T06:03:39;101964.19;;;2.00;100.00
38054;BME280;23859;50.672;7.164;2023-02-15T06:06:05;101967.59;;;2.02;100.00
38054;BME280;23859;50.672;7.164;2023-02-15T06:08:33;101967.44;;;2.06;100.00
38054;BME280;23859;50.672;7.164;2023-02-15T06:10:59;101960.50;;;2.05;100.00
38054;BME280;23859;50.672;7.164;2023-02-15T06:13:26;101957.94;;;2.04;100.00
38054;BME280;23859;50.672;7.164;2023-02-15T06:15:52;101961.56;;;2.00;100.00
38054;BME280;23859;50.672;7.164;2023-02-15T06:18:18;101983.63;;;1.93;100.00
38054;BME280;23859;50.672;7.164;2023-02-15T06:20:46;101967.19;;;1.88;100.00
38054;BME280;23859;50.672;7.164;2023-02-15T06:23:12;101957.50;;;1.90;100.00
38054;BME280;23859;50.672;7.164;2023-02-15T06:25:38;101966.09;;;1.95;100.00
38054;BME280;23859;50.672;7.164;2023-02-15T06:28:04;101973.13;;;1.93;100.00
38054;BME280;23859;50.672;7.164;2023-02-15T06:30:30;101962.66;;;1.93;100.00
38054;BME280;23859;50.672;7.164;2023-02-15T06:32:56;101960.88;;;1.94;100.00
38054;BME280;23859;50.672;7.164;2023-02-15T06:35:23;101964.47;;;1.91;100.00
38054;BME280;23859;50.672;7.164;2023-02-15T06:37:49;101976.06;;;1.84;100.00
38054;BME280;23859;50.672;7.164;2023-02-15T06:40:15;101966.38;;;1.86;100.00
38054;BME280;23859;50.672;7.164;2023-02-15T06:42:42;101976.00;;;1.86;100.00
38054;BME280;23859;50.672;7.164;2023-02-15T06:45:09;101978.69;;;1.84;100.00
38054;BME280;23859;50.672;7.164;2023-02-15T06:47:35;101981.31;;;1.83;100.00
38054;BME280;23859;50.672;7.164;2023-02-15T06:50:01;101970.66;;;1.89;100.00
38054;BME280;23859;50.672;7.164;2023-02-15T06:52:27;101983.81;;;1.87;100.00
38054;BME280;23859;50.672;7.164;2023-02-15T06:54:55;101981.19;;;1.87;100.00
38054;BME280;23859;50.672;7.164;2023-02-15T06:57:21;101976.84;;;1.86;100.00
38054;BME280;23859;50.672;7.164;2023-02-15T06:59:47;101968.75;;;1.94;100.00
38054;BME280;23859;50.672;7.164;2023-02-15T07:02:14;101971.41;;;1.92;100.00
38054;BME280;23859;50.672;7.164;2023-02-15T07:04:40;101977.28;;;2.00;100.00
38054;BME280;23859;50.672;7.164;2023-02-15T07:07:11;101974.34;;;2.09;100.00
38054;BME280;23859;50.672;7.164;2023-02-15T07:09:37;101969.19;;;2.06;100.00
38054;BME280;23859;50.672;7.164;2023-02-15T07:12:03;101961.25;;;2.09;100.00
38054;BME280;23859;50.672;7.164;2023-02-15T07:14:48;101960.34;;;2.10;100.00
38054;BME280;23859;50.672;7.164;2023-02-15T07:17:14;101954.59;;;2.25;100.00
38054;BME280;23859;50.672;7.164;2023-02-15T07:19:40;101957.47;;;2.17;100.00
38054;BME280;23859;50.672;7.164;2023-02-15T07:22:06;101962.59;;;2.22;100.00
38054;BME280;23859;50.672;7.164;2023-02-15T07:24:33;101848.38;;;1.63;100.00
38054;BME280;23859;50.672;7.164;2023-02-15T07:26:59;101954.19;;;2.37;100.00
38054;BME280;23859;50.672;7.164;2023-02-15T07:29:25;101954.22;;;2.61;100.00
38054;BME280;23859;50.672;7.164;2023-02-15T07:31:51;101944.63;;;2.84;100.00
38054;BME280;23859;50.672;7.164;2023-02-15T07:34:17;101955.97;;;2.85;100.00
38054;BME280;23859;50.672;7.164;2023-02-15T07:36:43;101948.22;;;3.28;100.00
38054;BME280;23859;50.672;7.164;2023-02-15T07:39:10;101939.34;;;3.31;100.00
38054;BME280;23859;50.672;7.164;2023-02-15T07:41:37;101939.22;;;3.56;100.00
38054;BME280;23859;50.672;7.164;2023-02-15T07:44:03;101938.00;;;3.64;100.00
38054;BME280;23859;50.672;7.164;2023-02-15T07:46:29;101932.84;;;3.40;100.00
38054;BME280;23859;50.672;7.164;2023-02-15T07:48:56;101929.66;;;3.55;100.00
38054;BME280;23859;50.672;7.164;2023-02-15T07:51:22;101932.06;;;3.61;100.00
38054;BME280;23859;50.672;7.164;2023-02-15T07:53:48;101915.19;;;3.66;100.00
38054;BME280;23859;50.672;7.164;2023-02-15T07:56:15;101921.88;;;3.52;100.00
38054;BME280;23859;50.672;7.164;2023-02-15T07:58:41;101917.97;;;3.62;100.00
38054;BME280;23859;50.672;7.164;2023-02-15T08:01:21;101912.41;;;3.69;99.43
38054;BME280;23859;50.672;7.164;2023-02-15T08:03:49;101925.53;;;3.69;99.40
38054;BME280;23859;50.672;7.164;2023-02-15T08:06:15;101901.25;;;3.86;99.13
38054;BME280;23859;50.672;7.164;2023-02-15T08:08:41;101905.13;;;4.18;97.39
38054;BME280;23859;50.672;7.164;2023-02-15T08:16:41;101902.22;;;5.02;90.34
38054;BME280;23859;50.672;7.164;2023-02-15T08:19:16;101900.94;;;4.72;91.46
38054;BME280;23859;50.672;7.164;2023-02-15T08:21:48;101896.41;;;4.76;92.39
38054;BME280;23859;50.672;7.164;2023-02-15T08:24:16;101897.09;;;5.18;90.37
38054;BME280;23859;50.672;7.164;2023-02-15T08:26:43;101891.06;;;4.77;91.44
38054;BME280;23859;50.672;7.164;2023-02-15T08:29:14;101893.22;;;4.30;94.98
38054;BME280;23859;50.672;7.164;2023-02-15T08:31:41;101897.47;;;4.32;95.36
38054;BME280;23859;50.672;7.164;2023-02-15T08:34:09;101897.63;;;4.29;95.21
38054;BME280;23859;50.672;7.164;2023-02-15T08:36:36;101907.34;;;4.47;95.16
38054;BME280;23859;50.672;7.164;2023-02-15T08:39:04;101880.94;;;4.30;94.44
38054;BME280;23859;50.672;7.164;2023-02-15T08:41:36;101902.59;;;4.75;93.72
38054;BME280;23859;50.672;7.164;2023-02-15T08:44:04;101898.34;;;5.29;89.94
38054;BME280;23859;50.672;7.164;2023-02-15T08:46:33;101892.97;;;5.30;90.22
38054;BME280;23859;50.672;7.164;2023-02-15T08:49:00;101892.69;;;5.36;88.73
38054;BME280;23859;50.672;7.164;2023-02-15T08:51:29;101892.09;;;5.48;87.28
38054;BME280;23859;50.672;7.164;2023-02-15T08:53:58;101890.41;;;5.47;87.92
38054;BME280;23859;50.672;7.164;2023-02-15T08:56:27;101886.41;;;5.57;87.86
38054;BME280;23859;50.672;7.164;2023-02-15T08:58:54;101880.69;;;5.85;87.09
38054;BME280;23859;50.672;7.164;2023-02-15T09:01:23;101877.53;;;5.95;84.92
38054;BME280;23859;50.672;7.164;2023-02-15T09:03:58;101873.03;;;6.14;83.28
38054;BME280;23859;50.672;7.164;2023-02-15T09:06:25;101875.47;;;5.83;85.01
38054;BME280;23859;50.672;7.164;2023-02-15T09:08:52;101869.59;;;6.46;82.55
38054;BME280;23859;50.672;7.164;2023-02-15T09:11:22;101858.91;;;6.32;81.96
38054;BME280;23859;50.672;7.164;2023-02-15T09:13:58;101861.22;;;6.04;83.87
38054;BME280;23859;50.672;7.164;2023-02-15T09:16:26;101865.09;;;6.31;83.21
38054;BME280;23859;50.672;7.164;2023-02-15T09:18:52;101863.16;;;6.83;81.63
38054;BME280;23859;50.672;7.164;2023-02-15T09:21:21;101859.66;;;7.30;79.04
38054;BME280;23859;50.672;7.164;2023-02-15T09:23:49;101854.63;;;7.41;77.09
38054;BME280;23859;50.672;7.164;2023-02-15T09:26:21;101859.91;;;7.57;76.44
38054;BME280;23859;50.672;7.164;2023-02-15T09:28:51;101858.88;;;7.59;77.08
38054;BME280;23859;50.672;7.164;2023-02-15T09:31:20;101866.25;;;8.14;75.02
38054;BME280;23859;50.672;7.164;2023-02-15T09:33:47;101852.00;;;8.31;72.03
38054;BME280;23859;50.672;7.164;2023-02-15T09:38:47;101874.63;;;7.92;74.63
38054;BME280;23859;50.672;7.164;2023-02-15T09:47:23;101881.94;;;6.62;81.15
38054;BME280;23859;50.672;7.164;2023-02-15T09:50:05;101875.22;;;6.23;82.99
38054;BME280;23859;50.672;7.164;2023-02-15T10:03:42;101865.50;;;8.56;73.49
38054;BME280;23859;50.672;7.164;2023-02-15T10:06:20;101867.88;;;8.88;70.18
38054;BME280;23859;50.672;7.164;2023-02-15T10:17:48;101877.75;;;11.20;59.57
38054;BME280;23859;50.672;7.164;2023-02-15T10:20:39;101882.78;;;10.74;61.07
38054;BME280;23859;50.672;7.164;2023-02-15T10:23:26;101854.16;;;11.63;58.77
38054;BME280;23859;50.672;7.164;2023-02-15T10:26:21;101853.25;;;11.52;57.80
38054;BME280;23859;50.672;7.164;2023-02-15T10:28:50;101850.22;;;12.82;54.31
38054;BME280;23859;50.672;7.164;2023-02-15T10:31:24;101847.06;;;12.66;54.41
38054;BME280;23859;50.672;7.164;2023-02-15T10:34:03;101846.31;;;12.19;56.26
38054;BME280;23859;50.672;7.164;2023-02-15T10:36:47;101845.91;;;13.03;52.42
38054;BME280;23859;50.672;7.164;2023-02-15T10:39:43;101857.22;;;12.16;55.08
38054;BME280;23859;50.672;7.164;2023-02-15T10:47:48;101841.59;;;13.55;51.34
38054;BME280;23859;50.672;7.164;2023-02-15T10:50:30;101852.28;;;14.69;48.24
38054;BME280;23859;50.672;7.164;2023-02-15T10:56:18;101844.53;;;14.26;48.50
38054;BME280;23859;50.672;7.164;2023-02-15T11:01:32;101832.19;;;13.19;51.56
38054;BME280;23859;50.672;7.164;2023-02-15T11:04:33;101832.44;;;13.05;51.94
38054;BME280;23859;50.672;7.164;2023-02-15T11:07:46;101829.59;;;12.28;54.16
38054;BME280;23859;50.672;7.164;2023-02-15T11:10:30;101813.22;;;12.78;53.42
38054;BME280;23859;50.672;7.164;2023-02-15T11:13:11;101822.28;;;12.54;53.51
38054;BME280;23859;50.672;7.164;2023-02-15T11:15:51;101820.00;;;11.45;58.01
38054;BME280;23859;50.672;7.164;2023-02-15T11:18:28;101812.78;;;11.94;56.71
38054;BME280;23859;50.672;7.164;2023-02-15T11:21:21;101808.41;;;11.93;57.36
38054;BME280;23859;50.672;7.164;2023-02-15T11:23:49;101807.75;;;12.12;56.09
38054;BME280;23859;50.672;7.164;2023-02-15T11:26:27;101791.19;;;11.86;57.25
38054;BME280;23859;50.672;7.164;2023-02-15T11:29:01;101800.06;;;12.31;56.17
38054;BME280;23859;50.672;7.164;2023-02-15T11:31:51;101795.53;;;11.40;58.26
38054;BME280;23859;50.672;7.164;2023-02-15T11:34:32;101792.56;;;10.96;60.90
38054;BME280;23859;50.672;7.164;2023-02-15T11:37:07;101784.69;;;11.07;60.99
38054;BME280;23859;50.672;7.164;2023-02-15T11:39:35;101787.94;;;10.87;61.57
38054;BME280;23859;50.672;7.164;2023-02-15T11:42:06;101781.53;;;11.85;58.19
38054;BME280;23859;50.672;7.164;2023-02-15T11:44:45;101767.41;;;12.95;54.60
38054;BME280;23859;50.672;7.164;2023-02-15T11:47:16;101761.91;;;13.29;52.65
38054;BME280;23859;50.672;7.164;2023-02-15T11:49:42;101772.25;;;12.68;54.72
38054;BME280;23859;50.672;7.164;2023-02-15T11:52:15;101764.50;;;11.28;58.51
38054;BME280;23859;50.672;7.164;2023-02-15T11:54:45;101762.97;;;11.83;57.95
38054;BME280;23859;50.672;7.164;2023-02-15T11:59:39;101762.03;;;11.37;59.24
38054;BME280;23859;50.672;7.164;2023-02-15T12:02:32;101763.91;;;11.12;59.54
38054;BME280;23859;50.672;7.164;2023-02-15T12:05:05;101761.59;;;10.60;62.55
38054;BME280;23859;50.672;7.164;2023-02-15T12:07:45;101759.91;;;10.34;63.15
38054;BME280;23859;50.672;7.164;2023-02-15T12:10:25;101742.91;;;11.56;58.92
38054;BME280;23859;50.672;7.164;2023-02-15T12:13:11;101749.94;;;11.57;58.36
38054;BME280;23859;50.672;7.164;2023-02-15T12:15:42;101737.78;;;11.53;58.35
38054;BME280;23859;50.672;7.164;2023-02-15T12:18:19;101737.09;;;12.63;55.29
38054;BME280;23859;50.672;7.164;2023-02-15T12:20:47;101738.06;;;12.62;54.69
38054;BME280;23859;50.672;7.164;2023-02-15T12:23:16;101729.72;;;11.89;56.55
38054;BME280;23859;50.672;7.164;2023-02-15T12:25:53;101716.50;;;12.65;55.30
38054;BME280;23859;50.672;7.164;2023-02-15T12:31:01;101719.84;;;12.45;56.88
38054;BME280;23859;50.672;7.164;2023-02-15T12:33:34;101706.75;;;11.41;59.19
38054;BME280;23859;50.672;7.164;2023-02-15T12:38:30;101696.09;;;12.20;57.41
38054;BME280;23859;50.672;7.164;2023-02-15T12:41:25;101692.94;;;11.36;59.88
38054;BME280;23859;50.672;7.164;2023-02-15T12:44:21;101708.16;;;11.92;58.63
38054;BME280;23859;50.672;7.164;2023-02-15T12:47:05;101708.97;;;11.70;58.97
38054;BME280;23859;50.672;7.164;2023-02-15T12:49:35;101696.94;;;12.32;57.28
38054;BME280;23859;50.672;7.164;2023-02-15T12:52:25;101683.38;;;12.67;56.25
38054;BME280;23859;50.672;7.164;2023-02-15T12:54:51;101682.78;;;12.42;56.53
38054;BME280;23859;50.672;7.164;2023-02-15T12:57:32;101686.63;;;12.82;55.54
38054;BME280;23859;50.672;7.164;2023-02-15T12:59:59;101680.34;;;12.94;55.88
38054;BME280;23859;50.672;7.164;2023-02-15T13:02:35;101669.31;;;12.87;55.47
38054;BME280;23859;50.672;7.164;2023-02-15T13:05:37;101686.88;;;13.63;53.85
38054;BME280;23859;50.672;7.164;2023-02-15T13:08:19;101666.53;;;14.33;51.53
38054;BME280;23859;50.672;7.164;2023-02-15T13:10:58;101659.97;;;14.95;49.33
38054;BME280;23859;50.672;7.164;2023-02-15T13:13:28;101658.25;;;14.75;50.15
38054;BME280;23859;50.672;7.164;2023-02-15T13:16:14;101657.28;;;13.96;52.22
38054;BME280;23859;50.672;7.164;2023-02-15T13:18:45;101645.13;;;14.63;50.67
38054;BME280;23859;50.672;7.164;2023-02-15T13:21:30;101643.56;;;15.28;48.89
38054;BME280;23859;50.672;7.164;2023-02-15T13:26:44;101633.16;;;14.85;49.61
38054;BME280;23859;50.672;7.164;2023-02-15T13:29:36;101629.50;;;14.67;49.70
38054;BME280;23859;50.672;7.164;2023-02-15T13:32:35;101635.47;;;13.91;52.50
38054;BME280;23859;50.672;7.164;2023-02-15T13:35:04;101631.59;;;13.23;54.57
38054;BME280;23859;50.672;7.164;2023-02-15T13:38:00;101624.34;;;13.14;55.53
38054;BME280;23859;50.672;7.164;2023-02-15T13:40:41;101623.84;;;14.01;53.16
38054;BME280;23859;50.672;7.164;2023-02-15T13:48:25;101605.59;;;15.13;50.06
38054;BME280;23859;50.672;7.164;2023-02-15T13:56:43;101606.72;;;12.27;59.79
38054;BME280;23859;50.672;7.164;2023-02-15T14:02:43;101603.06;;;12.17;60.20
38054;BME280;23859;50.672;7.164;2023-02-15T14:05:18;101598.34;;;12.32;59.89
38054;BME280;23859;50.672;7.164;2023-02-15T14:07:54;101595.34;;;12.78;58.57
38054;BME280;23859;50.672;7.164;2023-02-15T14:19:40;101593.13;;;12.30;60.67
38054;BME280;23859;50.672;7.164;2023-02-15T14:22:15;101596.13;;;12.37;60.68
38054;BME280;23859;50.672;7.164;2023-02-15T14:28:11;101586.00;;;14.06;54.83
38054;BME280;23859;50.672;7.164;2023-02-15T14:30:43;101584.34;;;14.35;54.09
38054;BME280;23859;50.672;7.164;2023-02-15T14:33:41;101584.44;;;14.91;51.94
38054;BME280;23859;50.672;7.164;2023-02-15T14:36:13;101586.06;;;14.55;53.48
38054;BME280;23859;50.672;7.164;2023-02-15T14:41:43;101583.72;;;14.80;52.38
38054;BME280;23859;50.672;7.164;2023-02-15T14:44:22;101594.25;;;13.94;54.80
38054;BME280;23859;50.672;7.164;2023-02-15T14:49:26;101591.00;;;12.66;59.26
38054;BME280;23859;50.672;7.164;2023-02-15T14:51:58;101582.59;;;12.29;61.54
38054;BME280;23859;50.672;7.164;2023-02-15T14:59:46;101587.09;;;11.85;64.34
38054;BME280;23859;50.672;7.164;2023-02-15T15:05:32;101576.19;;;11.77;64.95
38054;BME280;23859;50.672;7.164;2023-02-15T15:07:57;101570.50;;;11.81;64.83
38054;BME280;23859;50.672;7.164;2023-02-15T15:10:43;101585.00;;;11.66;65.84
38054;BME280;23859;50.672;7.164;2023-02-15T15:18:49;101576.59;;;11.49;66.31